ADDS METAR Data INFO
IDs: Format: Raw Decoded Include TAF

Data at: 0232 UTC 26 Jul 2017

KVCT 260151Z 15008KT 10SM CLR 29/24 A3005 RMK AO2 SLP174 T02940239
KVCT 260051Z 17010KT 10SM CLR 31/23 A3004 RMK AO2 SLP171 T03110228
KVCT 252351Z 17014G20KT 10SM CLR 33/22 A3003 RMK AO2 SLP167 T03280222 10372 20328 55003
KVCT 252251Z 14016G23KT 10SM SCT043 33/22 A3003 RMK AO2 SLP167 T03330222
KVCT 252151Z 16016G23KT 10SM FEW047 34/22 A3003 RMK AO2 SLP166 T03440217
KVCT 252051Z 15016KT 10SM SCT050 36/20 A3004 RMK AO2 SLP169 T03610200 58012
KVCT 251951Z 15015G20KT 10SM CLR 37/20 A3005 RMK AO2 SLP175 T03670200
KVCT 251851Z 15015G21KT 10SM CLR 36/18 A3007 RMK AO2 SLP179 T03610183
KVCT 251751Z 16015G20KT 10SM SCT047 36/21 A3007 RMK AO2 SLP181 T03560206 10356 20256 58006
KVCT 251651Z 16012KT 10SM SCT043 33/22 A3008 RMK AO2 SLP184 T03330217
KVCT 251551Z 17015KT 10SM FEW043 33/22 A3009 RMK AO2 SLP188 T03280217
KVCT 251451Z 18010KT 10SM SCT032 31/23 A3009 RMK AO2 SLP188 T03110233 51012
KVCT 251355Z 15006KT 10SM SCT032 29/24 A3008 RMK AO2 T02890244
KVCT 251351Z 15007KT 9SM FEW085 29/24 A3008 RMK AO2 SLP185 T02890244
KVCT 251252Z 14006KT 9SM FEW085 27/24 A3007 RMK AO2 T02670239
KVCT 251251Z 15006KT 8SM CLR 27/24 A3007 RMK AO2 SLP182 T02670239
KVCT 251151Z 14005KT 9SM CLR 26/23 A3006 RMK AO2 SLP176 T02560233 10261 20244 53011
KVCT 251051Z AUTO 12004KT 9SM FEW021 25/23 A3005 RMK AO2 SLP172 T02500233
KVCT 250951Z AUTO 10004KT 8SM FEW026 25/23 A3003 RMK AO2 SLP167 T02500233
KVCT 250851Z AUTO 13005KT 9SM CLR 25/23 A3002 RMK AO2 SLP164 T02500228 51003
KVCT 250751Z AUTO 13004KT 9SM FEW023 25/23 A3002 RMK AO2 SLP164 T02500228
KVCT 250651Z AUTO 13006KT 9SM CLR 25/23 A3002 RMK AO2 SLP164 T02500233
KVCT 250551Z AUTO 15007KT 9SM SCT025 26/23 A3002 RMK AO2 SLP162 T02610233 10317 20256 403670250 50017
KVCT 250524Z AUTO 16007KT 9SM FEW025 26/23 A3002 RMK AO2 T02610233
KVCT 250451Z AUTO 14006KT 9SM BKN026 26/23 A3002 RMK AO2 SLP163 T02560233
KVCT 250444Z AUTO 14006KT 9SM BKN028 26/23 A3002 RMK AO2 T02610233
KVCT 250417Z AUTO 14005KT 9SM FEW022 FEW027 27/23 A3001 RMK AO2 T02670233
KVCT 250351Z AUTO 15008KT 10SM BKN027 27/23 A3000 RMK AO2 SLP156 T02720233
KVCT 250327Z AUTO 15006KT 10SM BKN026 27/23 A3000 RMK AO2 T02720233
KVCT 250251Z AUTO 15010KT 10SM CLR 28/23 A2997 RMK AO2 SLP146 T02780233 50002
KVCT 250151Z 16009KT 10SM CLR 29/23 A2997 RMK AO2 SLP147 T02890233
KVCT 250051Z 16014KT 9SM CLR 30/23 A2997 RMK AO2 SLP148 T03000228
KVCT 242351Z 15015KT 10SM CLR 32/22 A2996 RMK AO2 SLP144 T03170222 10367 20317 53008
KVCT 242251Z 17015G21KT 10SM CLR 33/21 A2995 RMK AO2 SLP140 T03330211
KVCT 242151Z 17019G25KT 10SM CLR 35/21 A2994 RMK AO2 SLP135 T03500211
KVCT 242051Z 16018G24KT 10SM CLR 36/21 A2994 RMK AO2 SLP135 T03560206 58018
KVCT 241951Z 17015G23KT 10SM CLR 37/18 A2995 RMK AO2 SLP141 T03670178
KVCT 241851Z 18018G24KT 10SM CLR 36/19 A2998 RMK AO2 SLP149 T03610194
KVCT 241751Z 20016G23KT 10SM CLR 36/18 A2999 RMK AO2 SLP152 T03560183 10356 20250 58002
KVCT 241651Z 19015KT 10SM CLR 34/20 A2999 RMK AO2 SLP154 T03440200
KVCT 241551Z 20015KT 10SM CLR 33/21 A3000 RMK AO2 SLP155 T03280211
KVCT 241502Z 19010KT 9SM SCT025 BKN030 31/23 A2999 RMK AO2 T03060233
KVCT 241451Z 17012KT 9SM SCT024 BKN029 31/23 A3000 RMK AO2 SLP155 T03060228 51015